Time;durP1;ratioP1;P1;durP2;ratioP2;P2;SDS_P1;SDS_P2;PMS_P1;PMS_P2;Temp;Humidity;BMP_temperature;BMP_pressure;BME280_temperature;BME280_humidity;BME280_pressure;Samples;Min_cycle;Max_cycle;Signal;HPM_P1;HPM_P2
2022/08/29 00:00:26;;;;;;;10.68;4.80;;;;;;;;;;5082412;28;20432;-80
2022/08/29 00:02:54;;;;;;;9.52;4.45;;;;;;;;;;5083722;28;20413;-81
2022/08/29 00:05:22;;;;;;;7.93;4.45;;;;;;;;;;5067853;28;20413;-81
2022/08/29 00:07:49;;;;;;;10.85;4.18;;;;;;;;;;5083153;28;20954;-80
2022/08/29 00:10:16;;;;;;;12.88;4.57;;;;;;;;;;5083641;28;20410;-81
2022/08/29 00:12:43;;;;;;;12.98;4.63;;;;;;;;;;5081747;28;20749;-81
2022/08/29 00:15:16;;;;;;;9.43;4.43;;;;;;;;;;5084341;28;20425;-81
2022/08/29 00:17:43;;;;;;;12.30;4.55;;;;;;;;;;5086136;28;20410;-82
2022/08/29 00:20:11;;;;;;;10.63;4.30;;;;;;;;;;5082082;27;20435;-81
2022/08/29 00:22:37;;;;;;;8.83;4.13;;;;;;;;;;5106065;27;20454;-81
2022/08/29 00:25:06;;;;;;;12.60;3.90;;;;;;;;;;5079807;28;20414;-81
2022/08/29 00:27:32;;;;;;;8.30;3.90;;;;;;;;;;5083810;28;20430;-82
2022/08/29 00:29:59;;;;;;;7.95;4.40;;;;;;;;;;5081879;28;20496;-83
2022/08/29 00:32:33;;;;;;;10.15;4.78;;;;;;;;;;5083598;28;20414;-81
2022/08/29 00:34:59;;;;;;;7.83;4.40;;;;;;;;;;5083937;28;20435;-81
2022/08/29 00:37:26;;;;;;;11.55;5.50;;;;;;;;;;5069089;28;20480;-84
2022/08/29 00:39:52;;;;;;;12.70;4.40;;;;;;;;;;5083965;28;20429;-81
2022/08/29 00:42:20;;;;;;;9.85;4.25;;;;;;;;;;5084875;28;20435;-83
2022/08/29 00:44:47;;;;;;;10.37;4.93;;;;;;;;;;5084271;28;20418;-82
2022/08/29 00:47:17;;;;;;;10.88;4.55;;;;;;;;;;5082547;28;20962;-81
2022/08/29 00:49:46;;;;;;;9.80;4.15;;;;;;;;;;5085037;28;20438;-82
2022/08/29 00:52:16;;;;;;;10.35;4.60;;;;;;;;;;5083889;28;20431;-81
2022/08/29 00:54:44;;;;;;;10.83;5.03;;;;;;;;;;5081501;28;20424;-81
2022/08/29 00:57:12;;;;;;;10.75;4.40;;;;;;;;;;5083255;28;20922;-80
2022/08/29 00:59:40;;;;;;;12.97;4.50;;;;;;;;;;5084560;28;20480;-80
2022/08/29 01:02:09;;;;;;;10.00;4.57;;;;;;;;;;5083645;28;20435;-81
2022/08/29 01:04:36;;;;;;;9.70;4.20;;;;;;;;;;5081552;28;20485;-81
2022/08/29 01:07:03;;;;;;;12.27;4.97;;;;;;;;;;5082313;28;20424;-80
2022/08/29 01:09:30;;;;;;;9.13;5.10;;;;;;;;;;5082979;28;20422;-80
2022/08/29 01:14:46;;;;;;;12.95;5.50;;;;;;;;;;5083736;28;20506;-80
2022/08/29 01:17:14;;;;;;;11.38;5.30;;;;;;;;;;5083462;28;20441;-81
2022/08/29 01:19:45;;;;;;;13.15;6.30;;;;;;;;;;5082805;28;20787;-83
2022/08/29 01:22:15;;;;;;;10.75;5.20;;;;;;;;;;5084122;28;20438;-80
2022/08/29 01:24:49;;;;;;;13.95;5.85;;;;;;;;;;5082751;28;20425;-81
2022/08/29 01:27:16;;;;;;;13.37;7.03;;;;;;;;;;5086483;28;20490;-81
2022/08/29 01:29:42;;;;;;;13.85;6.20;;;;;;;;;;5085290;28;20431;-82
2022/08/29 01:32:09;;;;;;;15.75;7.47;;;;;;;;;;5066079;28;20426;-82
2022/08/29 01:34:35;;;;;;;17.05;7.32;;;;;;;;;;5081389;28;20428;-82
2022/08/29 01:37:03;;;;;;;13.52;7.03;;;;;;;;;;5081921;28;20424;-82
2022/08/29 01:39:31;;;;;;;13.35;6.65;;;;;;;;;;5085580;28;20905;-80
2022/08/29 01:42:00;;;;;;;17.83;7.40;;;;;;;;;;5082860;28;20427;-83
2022/08/29 01:44:26;;;;;;;17.63;7.80;;;;;;;;;;5083088;28;20469;-81
2022/08/29 01:46:55;;;;;;;10.73;7.20;;;;;;;;;;5082415;28;20418;-82
2022/08/29 01:49:22;;;;;;;19.35;6.57;;;;;;;;;;5081510;28;20435;-80
2022/08/29 01:51:49;;;;;;;13.40;5.90;;;;;;;;;;5083980;28;20818;-82
2022/08/29 01:54:18;;;;;;;9.57;5.05;;;;;;;;;;5080986;28;20440;-81
2022/08/29 01:56:46;;;;;;;12.68;5.10;;;;;;;;;;5082462;28;20459;-82
2022/08/29 01:59:16;;;;;;;14.90;5.28;;;;;;;;;;5082278;28;20430;-83
2022/08/29 02:01:47;;;;;;;13.18;5.10;;;;;;;;;;5067306;28;20410;-83
2022/08/29 02:04:13;;;;;;;15.32;5.70;;;;;;;;;;5082356;28;20510;-82
2022/08/29 02:06:40;;;;;;;10.00;5.10;;;;;;;;;;5082374;28;20942;-82
2022/08/29 02:09:06;;;;;;;16.05;6.03;;;;;;;;;;5082580;28;20467;-81
2022/08/29 02:11:34;;;;;;;9.48;5.07;;;;;;;;;;5082365;28;20458;-81
2022/08/29 02:14:00;;;;;;;10.43;5.20;;;;;;;;;;5086013;28;20423;-82
2022/08/29 02:16:29;;;;;;;11.63;4.57;;;;;;;;;;5083865;28;20482;-81
2022/08/29 02:18:56;;;;;;;11.60;4.82;;;;;;;;;;5083144;28;20438;-81
2022/08/29 02:21:24;;;;;;;12.05;5.00;;;;;;;;;;5081261;28;20489;-82
2022/08/29 02:23:51;;;;;;;12.15;5.03;;;;;;;;;;5087302;28;20446;-82
2022/08/29 02:26:18;;;;;;;11.23;5.10;;;;;;;;;;5086650;28;20429;-81
2022/08/29 02:28:45;;;;;;;11.90;5.40;;;;;;;;;;5088727;28;20434;-82
2022/08/29 02:31:12;;;;;;;10.10;5.27;;;;;;;;;;5089536;28;20441;-82
2022/08/29 02:33:40;;;;;;;11.25;4.90;;;;;;;;;;5086362;28;20422;-82
2022/08/29 02:36:07;;;;;;;12.05;5.05;;;;;;;;;;5087716;28;20514;-81
2022/08/29 02:38:34;;;;;;;11.48;5.20;;;;;;;;;;5089898;28;20427;-80
2022/08/29 02:41:01;;;;;;;8.00;4.88;;;;;;;;;;5086648;28;20568;-80
2022/08/29 02:43:27;;;;;;;13.73;5.47;;;;;;;;;;5089257;28;20429;-81
2022/08/29 02:45:54;;;;;;;12.95;5.38;;;;;;;;;;5086886;28;20419;-82
2022/08/29 02:48:22;;;;;;;12.55;5.57;;;;;;;;;;5087038;28;21277;-82
2022/08/29 02:50:52;;;;;;;11.60;5.50;;;;;;;;;;5085464;28;20430;-81
2022/08/29 02:53:19;;;;;;;8.73;5.03;;;;;;;;;;5086168;28;20485;-81
2022/08/29 02:55:47;;;;;;;8.65;5.10;;;;;;;;;;5081998;28;20431;-82
2022/08/29 02:58:16;;;;;;;9.65;5.00;;;;;;;;;;5085979;28;20435;-81
2022/08/29 03:00:43;;;;;;;11.30;5.88;;;;;;;;;;5087515;28;20921;-81
2022/08/29 03:03:10;;;;;;;12.52;5.80;;;;;;;;;;5086926;28;20434;-81
2022/08/29 03:05:37;;;;;;;10.23;5.47;;;;;;;;;;5084701;28;20418;-81
2022/08/29 03:08:06;;;;;;;13.05;5.60;;;;;;;;;;5085640;28;20437;-82
2022/08/29 03:10:32;;;;;;;11.95;5.22;;;;;;;;;;5087525;28;20419;-81
2022/08/29 03:13:00;;;;;;;13.85;5.80;;;;;;;;;;5087545;28;20426;-83
2022/08/29 03:15:26;;;;;;;18.80;6.00;;;;;;;;;;5086085;28;20921;-81
2022/08/29 03:17:53;;;;;;;10.93;5.90;;;;;;;;;;5087661;28;20433;-81
2022/08/29 03:20:20;;;;;;;9.55;5.13;;;;;;;;;;5087860;28;20416;-80
2022/08/29 03:22:47;;;;;;;13.88;5.47;;;;;;;;;;5084536;28;20480;-81
2022/08/29 03:25:15;;;;;;;13.10;5.20;;;;;;;;;;5084642;28;20427;-81
2022/08/29 03:27:41;;;;;;;11.80;5.45;;;;;;;;;;5118106;27;20430;-81
2022/08/29 03:30:11;;;;;;;10.77;5.00;;;;;;;;;;5081914;28;20423;-81
2022/08/29 03:32:37;;;;;;;12.60;5.43;;;;;;;;;;5082605;28;20429;-80
2022/08/29 03:35:04;;;;;;;10.13;5.30;;;;;;;;;;5083794;28;20802;-81
2022/08/29 03:37:31;;;;;;;13.40;5.75;;;;;;;;;;5083172;28;20503;-80
2022/08/29 03:39:59;;;;;;;13.77;6.23;;;;;;;;;;5081492;27;20508;-80
2022/08/29 03:42:28;;;;;;;9.50;5.60;;;;;;;;;;5098781;28;20435;-81
2022/08/29 03:44:55;;;;;;;14.93;6.07;;;;;;;;;;5084658;28;20459;-81
2022/08/29 03:47:22;;;;;;;11.00;5.72;;;;;;;;;;5084901;28;20458;-82
2022/08/29 03:49:49;;;;;;;12.15;5.55;;;;;;;;;;5080270;28;20427;-83
2022/08/29 03:52:15;;;;;;;15.50;6.20;;;;;;;;;;5080594;28;20459;-80
2022/08/29 03:54:42;;;;;;;10.20;5.13;;;;;;;;;;5082674;28;20428;-80
2022/08/29 03:57:09;;;;;;;16.83;5.70;;;;;;;;;;5078880;28;20438;-82
2022/08/29 03:59:38;;;;;;;12.83;5.90;;;;;;;;;;5087446;28;20449;-80
2022/08/29 04:02:04;;;;;;;14.02;6.28;;;;;;;;;;5085873;28;20427;-82
2022/08/29 04:07:16;;;;;;;13.20;5.90;;;;;;;;;;5084611;28;20450;-82
2022/08/29 04:09:43;;;;;;;13.38;6.43;;;;;;;;;;5085855;28;20442;-84
2022/08/29 04:12:11;;;;;;;13.57;5.40;;;;;;;;;;5084550;28;20952;-82
2022/08/29 04:14:40;;;;;;;13.85;6.10;;;;;;;;;;5082276;28;20420;-83
2022/08/29 04:17:07;;;;;;;14.52;6.78;;;;;;;;;;5084561;28;20406;-82
2022/08/29 04:19:34;;;;;;;12.88;6.00;;;;;;;;;;5083106;28;20422;-83
2022/08/29 04:22:01;;;;;;;13.70;6.40;;;;;;;;;;5085600;28;20417;-83
2022/08/29 04:24:29;;;;;;;12.90;7.25;;;;;;;;;;5080553;28;20427;-82
2022/08/29 04:26:56;;;;;;;15.48;7.00;;;;;;;;;;5081655;28;20434;-81
2022/08/29 04:29:22;;;;;;;16.00;6.17;;;;;;;;;;5079477;28;20438;-82
2022/08/29 04:31:50;;;;;;;11.32;6.30;;;;;;;;;;5077642;28;20431;-82
2022/08/29 04:34:17;;;;;;;15.07;6.65;;;;;;;;;;5081317;28;20500;-82
2022/08/29 04:36:46;;;;;;;12.82;6.15;;;;;;;;;;5083077;28;20432;-81
2022/08/29 04:39:12;;;;;;;11.48;6.32;;;;;;;;;;5084503;28;20427;-82
2022/08/29 04:41:39;;;;;;;17.20;7.30;;;;;;;;;;5079952;28;20417;-83
2022/08/29 04:44:06;;;;;;;18.40;7.60;;;;;;;;;;5084986;28;20446;-83
2022/08/29 04:46:34;;;;;;;15.70;7.35;;;;;;;;;;5076814;28;20477;-80
2022/08/29 04:49:04;;;;;;;15.77;7.30;;;;;;;;;;5083505;28;20426;-80
2022/08/29 04:51:30;;;;;;;14.13;6.30;;;;;;;;;;5086044;28;20421;-79
2022/08/29 04:53:57;;;;;;;18.08;7.28;;;;;;;;;;5085674;28;20415;-80
2022/08/29 04:56:23;;;;;;;14.10;7.00;;;;;;;;;;5082687;28;20427;-81
2022/08/29 04:58:50;;;;;;;15.73;6.93;;;;;;;;;;5083496;28;20466;-80
2022/08/29 05:01:20;;;;;;;14.05;6.55;;;;;;;;;;5085257;28;20424;-81
2022/08/29 05:03:46;;;;;;;17.55;7.20;;;;;;;;;;5085148;28;20436;-80
2022/08/29 05:06:15;;;;;;;16.52;6.78;;;;;;;;;;5083774;28;20419;-81
2022/08/29 05:08:42;;;;;;;20.67;6.95;;;;;;;;;;5085611;28;20423;-80
2022/08/29 05:11:10;;;;;;;15.07;6.55;;;;;;;;;;5081548;28;20451;-81
2022/08/29 05:13:37;;;;;;;15.55;7.40;;;;;;;;;;5087421;28;20414;-82
2022/08/29 05:16:04;;;;;;;14.80;8.05;;;;;;;;;;5082652;28;20426;-81
2022/08/29 05:18:32;;;;;;;16.80;7.75;;;;;;;;;;5084584;28;20433;-80
2022/08/29 05:20:58;;;;;;;18.08;7.45;;;;;;;;;;5084277;28;20442;-83
2022/08/29 05:23:28;;;;;;;17.63;7.00;;;;;;;;;;5083985;28;20416;-80
2022/08/29 05:25:55;;;;;;;12.48;7.13;;;;;;;;;;5079575;28;20418;-82
2022/08/29 05:28:22;;;;;;;15.98;7.45;;;;;;;;;;5086161;28;20413;-80
2022/08/29 05:30:48;;;;;;;14.93;7.30;;;;;;;;;;5081996;28;20426;-79
2022/08/29 05:33:15;;;;;;;18.10;8.60;;;;;;;;;;5086035;28;20414;-80
2022/08/29 05:35:42;;;;;;;19.80;9.50;;;;;;;;;;5082594;28;20797;-81
2022/08/29 05:38:09;;;;;;;26.85;9.25;;;;;;;;;;5081113;28;20493;-82
2022/08/29 05:40:37;;;;;;;20.15;8.68;;;;;;;;;;5083974;28;20416;-80
2022/08/29 05:43:04;;;;;;;17.73;9.02;;;;;;;;;;5085120;28;20435;-81
2022/08/29 05:45:31;;;;;;;20.52;9.30;;;;;;;;;;5083571;28;20492;-82
2022/08/29 05:47:58;;;;;;;18.70;9.10;;;;;;;;;;5082938;28;20434;-82
2022/08/29 05:50:25;;;;;;;21.47;9.50;;;;;;;;;;5080872;28;20431;-82
2022/08/29 05:52:51;;;;;;;20.75;8.98;;;;;;;;;;5078854;28;20421;-80
2022/08/29 05:55:18;;;;;;;19.33;9.27;;;;;;;;;;5080476;28;20421;-81
2022/08/29 05:57:48;;;;;;;16.80;9.30;;;;;;;;;;5082464;28;20435;-81
2022/08/29 06:00:15;;;;;;;18.40;10.20;;;;;;;;;;5078963;28;20944;-81
2022/08/29 06:02:42;;;;;;;20.85;10.05;;;;;;;;;;5081966;28;20435;-81
2022/08/29 06:05:09;;;;;;;23.60;10.37;;;;;;;;;;5067820;28;20406;-81
2022/08/29 06:07:35;;;;;;;21.60;11.00;;;;;;;;;;5081156;28;20437;-82
2022/08/29 06:10:05;;;;;;;23.00;12.20;;;;;;;;;;5082163;28;20414;-81
2022/08/29 06:12:32;;;;;;;25.23;10.73;;;;;;;;;;5085562;28;20426;-80
2022/08/29 06:14:59;;;;;;;23.90;11.73;;;;;;;;;;5079812;28;20425;-83
2022/08/29 06:17:26;;;;;;;21.60;11.85;;;;;;;;;;5085485;28;20412;-82
2022/08/29 06:19:56;;;;;;;24.92;11.73;;;;;;;;;;5083957;28;20415;-80
2022/08/29 06:22:22;;;;;;;24.23;11.07;;;;;;;;;;5079641;28;20439;-82
2022/08/29 06:24:52;;;;;;;23.83;12.60;;;;;;;;;;5080573;28;20407;-82
2022/08/29 06:27:18;;;;;;;21.75;12.50;;;;;;;;;;5084271;28;20491;-82
2022/08/29 06:29:44;;;;;;;19.00;12.03;;;;;;;;;;5083669;28;20411;-82
2022/08/29 06:32:12;;;;;;;23.20;11.55;;;;;;;;;;5082834;28;20888;-80
2022/08/29 06:34:39;;;;;;;23.50;12.82;;;;;;;;;;5080243;28;20437;-82
2022/08/29 06:37:06;;;;;;;17.80;11.40;;;;;;;;;;5084893;28;20416;-82
2022/08/29 06:39:32;;;;;;;21.45;12.65;;;;;;;;;;5082552;28;20411;-82
2022/08/29 06:41:58;;;;;;;24.05;11.30;;;;;;;;;;5080543;28;20920;-82
2022/08/29 06:44:25;;;;;;;22.70;11.73;;;;;;;;;;5084789;28;20419;-81
2022/08/29 06:46:52;;;;;;;22.65;11.23;;;;;;;;;;5080184;28;20459;-82
2022/08/29 06:49:20;;;;;;;20.27;10.35;;;;;;;;;;5082512;28;20413;-81
2022/08/29 06:51:51;;;;;;;18.98;9.07;;;;;;;;;;5082520;28;20917;-81
2022/08/29 06:54:18;;;;;;;22.33;9.60;;;;;;;;;;5065336;28;20485;-82
2022/08/29 06:56:44;;;;;;;18.67;8.75;;;;;;;;;;5079500;28;20435;-82
2022/08/29 06:59:12;;;;;;;20.23;10.05;;;;;;;;;;5083629;28;20438;-83
2022/08/29 07:01:41;;;;;;;18.83;9.82;;;;;;;;;;5082048;28;20511;-81
2022/08/29 07:04:07;;;;;;;27.08;10.57;;;;;;;;;;5083574;28;20624;-83
2022/08/29 07:06:35;;;;;;;18.60;10.55;;;;;;;;;;5080809;28;20500;-83
2022/08/29 07:09:02;;;;;;;24.63;10.73;;;;;;;;;;5083738;28;20429;-82
2022/08/29 07:11:29;;;;;;;21.13;10.38;;;;;;;;;;5085840;28;20434;-81
2022/08/29 07:13:57;;;;;;;24.15;11.20;;;;;;;;;;5084414;28;20435;-82
2022/08/29 07:16:23;;;;;;;23.40;11.35;;;;;;;;;;5087125;28;20566;-82
2022/08/29 07:18:49;;;;;;;19.63;11.45;;;;;;;;;;5084954;28;20430;-82
2022/08/29 07:21:17;;;;;;;18.63;11.45;;;;;;;;;;5086734;28;20421;-83
2022/08/29 07:23:44;;;;;;;23.55;12.75;;;;;;;;;;5086733;28;20504;-82
2022/08/29 07:26:12;;;;;;;24.30;12.10;;;;;;;;;;5084825;28;20950;-80
2022/08/29 07:28:39;;;;;;;22.75;13.07;;;;;;;;;;5087801;28;20901;-81
2022/08/29 07:31:06;;;;;;;25.30;13.20;;;;;;;;;;5084981;28;20411;-83
2022/08/29 07:33:33;;;;;;;26.27;13.60;;;;;;;;;;5086876;28;20436;-80
2022/08/29 07:36:00;;;;;;;24.73;12.77;;;;;;;;;;5086737;28;20421;-80
2022/08/29 07:38:29;;;;;;;21.15;13.35;;;;;;;;;;5087394;28;20410;-80
2022/08/29 07:41:00;;;;;;;27.13;13.27;;;;;;;;;;5084369;28;20431;-80
2022/08/29 07:43:26;;;;;;;24.67;12.68;;;;;;;;;;5080905;28;20843;-81
2022/08/29 07:45:53;;;;;;;20.48;11.77;;;;;;;;;;5083226;28;20422;-82
2022/08/29 07:48:19;;;;;;;18.80;11.95;;;;;;;;;;5086330;28;20777;-80
2022/08/29 07:50:46;;;;;;;16.27;10.97;;;;;;;;;;5085187;28;20425;-82
2022/08/29 07:53:13;;;;;;;17.60;9.80;;;;;;;;;;5086514;28;20470;-82
2022/08/29 07:55:39;;;;;;;16.20;9.33;;;;;;;;;;5085106;28;20461;-82
2022/08/29 07:58:07;;;;;;;17.50;8.93;;;;;;;;;;5083785;28;20453;-80
2022/08/29 08:00:33;;;;;;;14.67;8.17;;;;;;;;;;5067851;28;20426;-80
2022/08/29 08:03:00;;;;;;;13.50;8.60;;;;;;;;;;5084544;28;20403;-81
2022/08/29 08:05:27;;;;;;;16.40;8.40;;;;;;;;;;5083508;28;20410;-81
2022/08/29 08:07:53;;;;;;;13.43;8.53;;;;;;;;;;5086371;28;20413;-80
2022/08/29 08:10:20;;;;;;;14.63;7.93;;;;;;;;;;5084240;28;20420;-79
2022/08/29 08:12:47;;;;;;;14.63;8.35;;;;;;;;;;5086603;28;20425;-80
2022/08/29 08:15:16;;;;;;;11.93;7.57;;;;;;;;;;5085266;28;20417;-81
2022/08/29 08:17:43;;;;;;;16.73;7.70;;;;;;;;;;5085532;28;20418;-81
2022/08/29 08:20:13;;;;;;;12.15;7.15;;;;;;;;;;5088592;28;20419;-81
2022/08/29 08:22:39;;;;;;;13.32;6.70;;;;;;;;;;5084721;28;20457;-80
2022/08/29 08:25:06;;;;;;;12.48;6.47;;;;;;;;;;5084052;28;20407;-80
2022/08/29 08:27:33;;;;;;;9.93;5.30;;;;;;;;;;5083911;28;20531;-79
2022/08/29 08:29:59;;;;;;;10.80;5.07;;;;;;;;;;5085568;28;20429;-79
2022/08/29 08:32:27;;;;;;;5.65;3.75;;;;;;;;;;5085792;28;20414;-81
2022/08/29 08:34:54;;;;;;;4.95;3.47;;;;;;;;;;5084754;28;20915;-80
2022/08/29 08:37:20;;;;;;;3.60;2.70;;;;;;;;;;5081198;28;20474;-80
2022/08/29 08:39:46;;;;;;;4.32;2.78;;;;;;;;;;5085070;28;20427;-81
2022/08/29 08:42:21;;;;;;;4.50;2.80;;;;;;;;;;5083731;28;20442;-80
2022/08/29 08:45:00;;;;;;;4.70;3.40;;;;;;;;;;5083607;28;20437;-81
2022/08/29 08:47:30;;;;;;;8.85;2.60;;;;;;;;;;5083536;28;20432;-80
2022/08/29 08:49:59;;;;;;;5.30;2.80;;;;;;;;;;5083741;28;20428;-80
2022/08/29 08:52:37;;;;;;;4.40;2.60;;;;;;;;;;5084116;28;20421;-81
2022/08/29 08:55:08;;;;;;;4.47;2.95;;;;;;;;;;5080876;28;21078;-79
2022/08/29 08:57:38;;;;;;;4.50;3.00;;;;;;;;;;5083720;28;20951;-80
2022/08/29 09:00:06;;;;;;;4.57;2.70;;;;;;;;;;5083966;28;20993;-80
2022/08/29 09:02:36;;;;;;;2.60;2.40;;;;;;;;;;5083537;28;20421;-80
2022/08/29 09:05:11;;;;;;;3.70;2.15;;;;;;;;;;5082432;28;20420;-80
2022/08/29 09:07:44;;;;;;;2.35;2.15;;;;;;;;;;5084924;28;20736;-80
2022/08/29 09:10:15;;;;;;;3.13;2.20;;;;;;;;;;5082568;28;20468;-80
2022/08/29 09:12:46;;;;;;;4.70;2.20;;;;;;;;;;5083085;28;20522;-81
2022/08/29 09:15:15;;;;;;;2.42;2.22;;;;;;;;;;5083901;28;20430;-79
2022/08/29 09:17:44;;;;;;;3.07;2.27;;;;;;;;;;5084466;28;20428;-80
2022/08/29 09:20:13;;;;;;;3.17;2.20;;;;;;;;;;5082357;28;20841;-80
2022/08/29 09:22:41;;;;;;;2.55;2.22;;;;;;;;;;5084346;28;20411;-80
2022/08/29 09:25:09;;;;;;;3.30;2.40;;;;;;;;;;5077589;28;20550;-81
2022/08/29 09:27:44;;;;;;;3.35;2.30;;;;;;;;;;5084776;28;20420;-81
2022/08/29 09:30:12;;;;;;;4.70;2.35;;;;;;;;;;5080796;28;20487;-80
2022/08/29 09:32:59;;;;;;;2.80;2.00;;;;;;;;;;5084078;28;20448;-80
2022/08/29 09:35:28;;;;;;;5.20;2.60;;;;;;;;;;5085091;28;20441;-80
2022/08/29 09:37:56;;;;;;;3.17;2.22;;;;;;;;;;5083077;28;20456;-81
2022/08/29 09:40:22;;;;;;;3.97;2.30;;;;;;;;;;5081477;28;20428;-81
2022/08/29 09:42:51;;;;;;;3.70;2.60;;;;;;;;;;5084509;28;20416;-81
2022/08/29 09:45:19;;;;;;;3.13;2.25;;;;;;;;;;5068282;28;20422;-80
2022/08/29 09:47:46;;;;;;;3.15;2.40;;;;;;;;;;5080815;28;20431;-81
2022/08/29 09:50:19;;;;;;;3.30;2.30;;;;;;;;;;5085082;28;20421;-82
2022/08/29 09:52:51;;;;;;;3.58;2.10;;;;;;;;;;5084333;28;22296;-81
2022/08/29 09:55:27;;;;;;;2.50;2.20;;;;;;;;;;5084027;28;20406;-81
2022/08/29 09:57:56;;;;;;;3.50;2.10;;;;;;;;;;5083369;28;20420;-81
2022/08/29 10:00:27;;;;;;;4.20;2.72;;;;;;;;;;5082275;28;20426;-81
2022/08/29 10:02:54;;;;;;;2.25;2.05;;;;;;;;;;5083272;28;20511;-82
2022/08/29 10:05:43;;;;;;;2.70;2.40;;;;;;;;;;5084032;28;20419;-82
2022/08/29 10:08:24;;;;;;;2.72;2.03;;;;;;;;;;5083024;28;20421;-82
2022/08/29 10:10:51;;;;;;;2.50;2.30;;;;;;;;;;5082103;28;20455;-82
2022/08/29 10:13:23;;;;;;;3.40;2.40;;;;;;;;;;5085146;28;20411;-82
2022/08/29 10:15:51;;;;;;;2.40;1.90;;;;;;;;;;5082028;28;20421;-82
2022/08/29 10:18:27;;;;;;;3.70;1.90;;;;;;;;;;5084219;28;20419;-82
2022/08/29 10:21:04;;;;;;;3.47;2.17;;;;;;;;;;5081672;28;20505;-81
2022/08/29 10:23:36;;;;;;;3.95;2.08;;;;;;;;;;5081062;28;20464;-83
2022/08/29 10:26:05;;;;;;;3.10;1.90;;;;;;;;;;5082028;28;20427;-82
2022/08/29 10:28:35;;;;;;;4.20;2.10;;;;;;;;;;5079926;28;20787;-79
2022/08/29 10:31:04;;;;;;;3.85;2.10;;;;;;;;;;5082738;28;20799;-79
2022/08/29 10:33:42;;;;;;;2.83;2.20;;;;;;;;;;5085834;28;20914;-80
2022/08/29 10:36:13;;;;;;;3.40;2.40;;;;;;;;;;5067352;28;20948;-80
2022/08/29 10:38:51;;;;;;;5.15;2.15;;;;;;;;;;5078591;28;20431;-81
2022/08/29 12:40:53;;;;;;;1.65;1.30;;;;;;;;;;5083323;28;20359;-80
2022/08/29 12:43:35;;;;;;;4.07;1.90;;;;;;;;;;5079958;28;20415;-80
2022/08/29 12:46:09;;;;;;;2.70;1.60;;;;;;;;;;5076309;28;20422;-80
2022/08/29 12:48:40;;;;;;;3.05;1.50;;;;;;;;;;5079988;28;20439;-80
2022/08/29 12:51:07;;;;;;;3.00;1.70;;;;;;;;;;5081611;28;20487;-81
2022/08/29 12:53:35;;;;;;;4.78;1.30;;;;;;;;;;5084743;28;20417;-81
2022/08/29 12:56:03;;;;;;;2.20;1.50;;;;;;;;;;5077845;28;20518;-81
2022/08/29 12:58:32;;;;;;;3.22;1.60;;;;;;;;;;5083067;28;20517;-80
2022/08/29 13:01:00;;;;;;;3.85;1.92;;;;;;;;;;5082491;28;20893;-82
2022/08/29 13:03:27;;;;;;;4.45;1.88;;;;;;;;;;5081173;28;20438;-81
2022/08/29 13:06:02;;;;;;;2.25;1.52;;;;;;;;;;5082745;28;20411;-80
2022/08/29 13:08:31;;;;;;;3.35;1.70;;;;;;;;;;5082507;28;21003;-82
2022/08/29 13:11:00;;;;;;;1.63;1.42;;;;;;;;;;5079967;28;20438;-81
2022/08/29 13:13:27;;;;;;;2.03;1.30;;;;;;;;;;5083587;28;20420;-82
2022/08/29 13:15:55;;;;;;;2.63;1.23;;;;;;;;;;5080281;28;20430;-82
2022/08/29 13:18:21;;;;;;;2.10;1.40;;;;;;;;;;5082318;28;20426;-80
2022/08/29 13:21:02;;;;;;;2.00;1.80;;;;;;;;;;5081765;28;20412;-82
2022/08/29 13:23:30;;;;;;;2.70;1.48;;;;;;;;;;5078579;28;20426;-82
2022/08/29 13:25:59;;;;;;;3.50;1.90;;;;;;;;;;5078363;28;20721;-82
2022/08/29 13:28:28;;;;;;;2.10;1.40;;;;;;;;;;5079791;28;20912;-81
2022/08/29 13:31:21;;;;;;;3.60;1.70;;;;;;;;;;5081082;28;20410;-81
2022/08/29 13:34:03;;;;;;;3.65;1.77;;;;;;;;;;5036636;28;20452;-81
2022/08/29 13:36:32;;;;;;;1.67;1.50;;;;;;;;;;5062071;28;20437;-80
2022/08/29 13:39:23;;;;;;;3.50;1.80;;;;;;;;;;5082441;28;20427;-80
2022/08/29 13:41:51;;;;;;;1.83;1.60;;;;;;;;;;5081178;28;20483;-80
2022/08/29 13:44:18;;;;;;;2.30;1.58;;;;;;;;;;5078260;28;20439;-81
2022/08/29 13:46:46;;;;;;;3.38;1.60;;;;;;;;;;5063470;28;20408;-80
2022/08/29 13:49:20;;;;;;;1.67;1.30;;;;;;;;;;5082917;28;20836;-80
2022/08/29 13:51:48;;;;;;;2.90;1.38;;;;;;;;;;5080721;28;20419;-80
2022/08/29 13:54:15;;;;;;;2.40;1.17;;;;;;;;;;5084236;28;20817;-81
2022/08/29 13:56:41;;;;;;;5.10;1.50;;;;;;;;;;5080537;28;20416;-80
2022/08/29 13:59:10;;;;;;;2.08;1.23;;;;;;;;;;5081998;28;20430;-80
2022/08/29 14:01:37;;;;;;;2.60;1.20;;;;;;;;;;5081971;28;20494;-81
2022/08/29 14:04:03;;;;;;;3.30;1.30;;;;;;;;;;5081954;28;20433;-79
2022/08/29 14:06:31;;;;;;;3.10;1.40;;;;;;;;;;5082224;28;20420;-80
2022/08/29 14:08:59;;;;;;;2.40;1.20;;;;;;;;;;5081812;28;20433;-81
2022/08/29 14:11:27;;;;;;;1.40;0.80;;;;;;;;;;5081147;28;20402;-80
2022/08/29 14:13:53;;;;;;;1.20;1.08;;;;;;;;;;5081648;28;20458;-80
2022/08/29 14:16:20;;;;;;;2.90;1.30;;;;;;;;;;5078935;28;20428;-80
2022/08/29 14:18:48;;;;;;;2.30;0.97;;;;;;;;;;5083835;28;20434;-80
2022/08/29 14:21:16;;;;;;;1.30;0.90;;;;;;;;;;5086422;28;20402;-82
2022/08/29 14:23:42;;;;;;;2.70;1.10;;;;;;;;;;5084777;28;20430;-79
2022/08/29 14:26:10;;;;;;;1.90;1.13;;;;;;;;;;5084073;28;20411;-79
2022/08/29 14:28:36;;;;;;;1.47;1.20;;;;;;;;;;5085677;28;20406;-80
2022/08/29 14:31:03;;;;;;;1.33;1.00;;;;;;;;;;5067635;28;20955;-80
2022/08/29 14:33:29;;;;;;;1.30;0.90;;;;;;;;;;5085830;28;20441;-80
2022/08/29 14:35:56;;;;;;;1.20;1.10;;;;;;;;;;5084921;28;20413;-80
2022/08/29 14:38:22;;;;;;;2.40;1.08;;;;;;;;;;5084844;28;20426;-79
2022/08/29 14:40:49;;;;;;;1.25;1.15;;;;;;;;;;5083935;28;20926;-81
2022/08/29 14:43:16;;;;;;;1.35;0.90;;;;;;;;;;5083600;28;20419;-81
2022/08/29 14:45:43;;;;;;;1.80;1.30;;;;;;;;;;5085622;28;20406;-80
2022/08/29 14:48:09;;;;;;;1.07;0.97;;;;;;;;;;5084792;28;20421;-80
2022/08/29 14:50:36;;;;;;;1.80;1.03;;;;;;;;;;5069245;28;20408;-80
2022/08/29 14:53:02;;;;;;;1.10;1.00;;;;;;;;;;5084573;28;21045;-80
2022/08/29 14:55:28;;;;;;;2.20;1.10;;;;;;;;;;5085032;28;20887;-81
2022/08/29 14:57:55;;;;;;;2.60;1.00;;;;;;;;;;5084929;28;20414;-79
2022/08/29 15:00:24;;;;;;;1.50;1.17;;;;;;;;;;5082856;28;20441;-80
2022/08/29 15:02:51;;;;;;;2.30;1.50;;;;;;;;;;5084684;28;20439;-80
2022/08/29 15:05:17;;;;;;;2.10;1.20;;;;;;;;;;5084720;28;20431;-79
2022/08/29 15:07:44;;;;;;;2.08;1.40;;;;;;;;;;5083922;28;20444;-81
2022/08/29 15:10:12;;;;;;;2.45;1.30;;;;;;;;;;5085646;28;20483;-79
2022/08/29 15:12:39;;;;;;;2.40;1.70;;;;;;;;;;5084354;28;20927;-84
2022/08/29 15:15:06;;;;;;;2.47;1.50;;;;;;;;;;5085470;28;20439;-80
2022/08/29 15:17:35;;;;;;;1.60;1.20;;;;;;;;;;5082020;28;20939;-81
2022/08/29 15:20:01;;;;;;;1.67;1.10;;;;;;;;;;5086015;28;20429;-80
2022/08/29 15:22:28;;;;;;;1.30;1.20;;;;;;;;;;5084813;28;20422;-81
2022/08/29 15:24:55;;;;;;;0.90;0.90;;;;;;;;;;5084631;28;20438;-82
2022/08/29 15:27:22;;;;;;;1.10;1.00;;;;;;;;;;5084521;28;20415;-81
2022/08/29 15:29:48;;;;;;;2.60;1.00;;;;;;;;;;5080301;28;21063;-81
2022/08/29 15:32:15;;;;;;;1.50;1.30;;;;;;;;;;5077765;28;20424;-80
2022/08/29 15:34:43;;;;;;;1.38;1.27;;;;;;;;;;5066935;28;20425;-80
2022/08/29 15:37:10;;;;;;;1.90;1.30;;;;;;;;;;5080329;28;20420;-79
2022/08/29 15:39:36;;;;;;;1.58;1.35;;;;;;;;;;5083602;28;20434;-80
2022/08/29 15:42:04;;;;;;;2.20;1.25;;;;;;;;;;5075840;28;20435;-79
2022/08/29 15:44:30;;;;;;;1.93;1.60;;;;;;;;;;5082256;28;20427;-79
2022/08/29 15:46:57;;;;;;;1.73;1.50;;;;;;;;;;5078029;28;20499;-80
2022/08/29 15:49:25;;;;;;;1.70;1.60;;;;;;;;;;5084580;28;20406;-80
2022/08/29 15:51:53;;;;;;;2.15;1.48;;;;;;;;;;5080743;28;20471;-79
2022/08/29 15:54:20;;;;;;;1.80;1.70;;;;;;;;;;5082322;28;20491;-81
2022/08/29 15:56:46;;;;;;;1.70;1.58;;;;;;;;;;5081988;28;20807;-80
2022/08/29 15:59:13;;;;;;;2.17;1.80;;;;;;;;;;5084568;28;20441;-80
2022/08/29 16:01:40;;;;;;;1.60;1.50;;;;;;;;;;5081087;28;20413;-80
2022/08/29 16:04:07;;;;;;;1.60;1.50;;;;;;;;;;5081217;28;20801;-80
2022/08/29 16:06:34;;;;;;;1.67;1.58;;;;;;;;;;5081695;28;20418;-80
2022/08/29 16:09:03;;;;;;;2.80;1.50;;;;;;;;;;5082758;28;20449;-79
2022/08/29 16:11:33;;;;;;;1.50;1.40;;;;;;;;;;5077937;28;20408;-83
2022/08/29 16:14:00;;;;;;;2.73;1.70;;;;;;;;;;5084407;28;20412;-80
2022/08/29 16:16:28;;;;;;;1.60;1.50;;;;;;;;;;5079433;28;20427;-79
2022/08/29 16:18:55;;;;;;;1.40;1.30;;;;;;;;;;5081644;28;20562;-78
2022/08/29 16:21:22;;;;;;;1.70;1.30;;;;;;;;;;5079513;28;20437;-80
2022/08/29 16:23:50;;;;;;;1.80;1.30;;;;;;;;;;5079846;28;20438;-79
2022/08/29 16:26:18;;;;;;;1.33;1.20;;;;;;;;;;5066099;28;20408;-83
2022/08/29 16:28:45;;;;;;;1.80;1.50;;;;;;;;;;5082136;28;20422;-81
2022/08/29 16:31:12;;;;;;;2.60;1.50;;;;;;;;;;5078506;28;22518;-79
2022/08/29 16:33:39;;;;;;;1.70;1.33;;;;;;;;;;5083028;28;20435;-79
2022/08/29 16:36:06;;;;;;;2.25;1.33;;;;;;;;;;5063651;28;20428;-79
2022/08/29 16:38:33;;;;;;;1.70;1.40;;;;;;;;;;5079513;28;20429;-79
2022/08/29 16:41:05;;;;;;;1.40;1.20;;;;;;;;;;5079915;28;20446;-79
2022/08/29 16:43:33;;;;;;;1.40;1.30;;;;;;;;;;5082836;28;21171;-80
2022/08/29 16:45:59;;;;;;;2.60;1.40;;;;;;;;;;5082025;28;20409;-79